sensor_id;sensor_type;location;lat;lon;timestamp;P1;durP1;ratioP1;P2;durP2;ratioP2
20928;SDS011;21895;47.072;15.132;2023-12-28T00:01:46;12.70;;;5.37;;
20928;SDS011;21895;47.072;15.132;2023-12-28T00:04:13;13.17;;;4.30;;
20928;SDS011;21895;47.072;15.132;2023-12-28T00:06:42;16.43;;;3.93;;
20928;SDS011;21895;47.072;15.132;2023-12-28T00:09:09;11.37;;;5.83;;
20928;SDS011;21895;47.072;15.132;2023-12-28T00:11:37;6.00;;;3.97;;
20928;SDS011;21895;47.072;15.132;2023-12-28T00:14:05;15.43;;;5.13;;
20928;SDS011;21895;47.072;15.132;2023-12-28T00:16:32;8.90;;;3.90;;
20928;SDS011;21895;47.072;15.132;2023-12-28T00:18:58;12.93;;;4.83;;
20928;SDS011;21895;47.072;15.132;2023-12-28T00:21:27;13.70;;;4.87;;
20928;SDS011;21895;47.072;15.132;2023-12-28T00:23:54;11.07;;;4.90;;
20928;SDS011;21895;47.072;15.132;2023-12-28T00:26:21;12.70;;;4.53;;
20928;SDS011;21895;47.072;15.132;2023-12-28T00:28:48;14.07;;;3.53;;
20928;SDS011;21895;47.072;15.132;2023-12-28T00:31:14;14.80;;;4.50;;
20928;SDS011;21895;47.072;15.132;2023-12-28T00:33:41;8.13;;;3.47;;
20928;SDS011;21895;47.072;15.132;2023-12-28T00:36:08;10.23;;;2.67;;
20928;SDS011;21895;47.072;15.132;2023-12-28T00:38:35;8.87;;;4.03;;
20928;SDS011;21895;47.072;15.132;2023-12-28T00:41:01;7.10;;;2.97;;
20928;SDS011;21895;47.072;15.132;2023-12-28T00:43:28;10.67;;;3.37;;
20928;SDS011;21895;47.072;15.132;2023-12-28T00:45:55;12.13;;;4.47;;
20928;SDS011;21895;47.072;15.132;2023-12-28T00:48:21;14.47;;;3.73;;
20928;SDS011;21895;47.072;15.132;2023-12-28T00:50:48;7.77;;;3.40;;
20928;SDS011;21895;47.072;15.132;2023-12-28T00:53:15;13.23;;;3.80;;
20928;SDS011;21895;47.072;15.132;2023-12-28T00:55:41;10.63;;;3.83;;
20928;SDS011;21895;47.072;15.132;2023-12-28T00:58:08;7.50;;;3.00;;
20928;SDS011;21895;47.072;15.132;2023-12-28T01:00:34;10.07;;;3.40;;
20928;SDS011;21895;47.072;15.132;2023-12-28T01:03:01;8.50;;;4.43;;
20928;SDS011;21895;47.072;15.132;2023-12-28T01:05:28;8.03;;;2.80;;
20928;SDS011;21895;47.072;15.132;2023-12-28T01:07:55;6.80;;;4.07;;
20928;SDS011;21895;47.072;15.132;2023-12-28T01:10:22;6.00;;;3.10;;
20928;SDS011;21895;47.072;15.132;2023-12-28T01:12:49;8.73;;;3.13;;
20928;SDS011;21895;47.072;15.132;2023-12-28T01:15:15;11.23;;;3.77;;
20928;SDS011;21895;47.072;15.132;2023-12-28T01:17:43;11.20;;;3.73;;
20928;SDS011;21895;47.072;15.132;2023-12-28T01:20:10;9.90;;;4.57;;
20928;SDS011;21895;47.072;15.132;2023-12-28T01:22:37;6.60;;;3.50;;
20928;SDS011;21895;47.072;15.132;2023-12-28T01:25:03;7.60;;;2.60;;
20928;SDS011;21895;47.072;15.132;2023-12-28T01:27:31;3.00;;;1.70;;
20928;SDS011;21895;47.072;15.132;2023-12-28T01:29:57;8.70;;;3.57;;
20928;SDS011;21895;47.072;15.132;2023-12-28T01:32:24;5.67;;;3.60;;
20928;SDS011;21895;47.072;15.132;2023-12-28T01:34:50;9.20;;;3.60;;
20928;SDS011;21895;47.072;15.132;2023-12-28T01:37:17;10.73;;;3.20;;
20928;SDS011;21895;47.072;15.132;2023-12-28T01:39:44;9.13;;;3.67;;
20928;SDS011;21895;47.072;15.132;2023-12-28T01:42:11;4.40;;;2.13;;
20928;SDS011;21895;47.072;15.132;2023-12-28T01:44:37;7.73;;;3.47;;
20928;SDS011;21895;47.072;15.132;2023-12-28T01:47:04;12.70;;;3.50;;
20928;SDS011;21895;47.072;15.132;2023-12-28T01:49:32;4.77;;;3.03;;
20928;SDS011;21895;47.072;15.132;2023-12-28T01:52:01;9.73;;;2.27;;
20928;SDS011;21895;47.072;15.132;2023-12-28T01:54:30;3.60;;;2.53;;
20928;SDS011;21895;47.072;15.132;2023-12-28T01:56:58;11.00;;;2.60;;
20928;SDS011;21895;47.072;15.132;2023-12-28T01:59:29;4.40;;;2.17;;
20928;SDS011;21895;47.072;15.132;2023-12-28T02:01:57;8.77;;;2.90;;
20928;SDS011;21895;47.072;15.132;2023-12-28T02:04:24;2.33;;;1.90;;
20928;SDS011;21895;47.072;15.132;2023-12-28T02:06:57;5.77;;;3.37;;
20928;SDS011;21895;47.072;15.132;2023-12-28T02:09:26;4.80;;;2.57;;
20928;SDS011;21895;47.072;15.132;2023-12-28T02:11:53;9.87;;;3.57;;
20928;SDS011;21895;47.072;15.132;2023-12-28T02:14:20;8.87;;;3.53;;
20928;SDS011;21895;47.072;15.132;2023-12-28T02:16:56;13.23;;;2.93;;
20928;SDS011;21895;47.072;15.132;2023-12-28T02:19:54;10.53;;;2.03;;
20928;SDS011;21895;47.072;15.132;2023-12-28T02:22:23;4.77;;;2.97;;
20928;SDS011;21895;47.072;15.132;2023-12-28T02:25:00;2.93;;;2.00;;
20928;SDS011;21895;47.072;15.132;2023-12-28T02:27:43;11.27;;;4.67;;
20928;SDS011;21895;47.072;15.132;2023-12-28T02:30:13;3.53;;;2.57;;
20928;SDS011;21895;47.072;15.132;2023-12-28T02:33:11;4.03;;;2.83;;
20928;SDS011;21895;47.072;15.132;2023-12-28T02:35:52;3.80;;;2.20;;
20928;SDS011;21895;47.072;15.132;2023-12-28T02:38:24;3.10;;;2.40;;
20928;SDS011;21895;47.072;15.132;2023-12-28T02:40:55;11.43;;;3.23;;
20928;SDS011;21895;47.072;15.132;2023-12-28T02:43:23;3.67;;;1.90;;
20928;SDS011;21895;47.072;15.132;2023-12-28T02:45:49;4.07;;;2.50;;
20928;SDS011;21895;47.072;15.132;2023-12-28T02:48:16;8.43;;;2.63;;
20928;SDS011;21895;47.072;15.132;2023-12-28T02:50:43;12.80;;;3.23;;
20928;SDS011;21895;47.072;15.132;2023-12-28T02:53:10;9.87;;;3.27;;
20928;SDS011;21895;47.072;15.132;2023-12-28T02:55:37;4.50;;;2.67;;
20928;SDS011;21895;47.072;15.132;2023-12-28T02:58:04;8.03;;;2.73;;
20928;SDS011;21895;47.072;15.132;2023-12-28T03:00:30;4.53;;;2.13;;
20928;SDS011;21895;47.072;15.132;2023-12-28T03:02:57;5.13;;;2.50;;
20928;SDS011;21895;47.072;15.132;2023-12-28T03:05:24;4.07;;;1.77;;
20928;SDS011;21895;47.072;15.132;2023-12-28T03:07:51;4.63;;;2.27;;
20928;SDS011;21895;47.072;15.132;2023-12-28T03:10:17;5.07;;;2.80;;
20928;SDS011;21895;47.072;15.132;2023-12-28T03:12:44;3.47;;;2.10;;
20928;SDS011;21895;47.072;15.132;2023-12-28T03:15:11;3.10;;;2.10;;
20928;SDS011;21895;47.072;15.132;2023-12-28T03:17:38;3.93;;;2.53;;
20928;SDS011;21895;47.072;15.132;2023-12-28T03:20:05;8.17;;;3.30;;
20928;SDS011;21895;47.072;15.132;2023-12-28T03:22:33;5.93;;;2.43;;
20928;SDS011;21895;47.072;15.132;2023-12-28T03:25:00;5.00;;;2.47;;
20928;SDS011;21895;47.072;15.132;2023-12-28T03:27:27;5.33;;;2.50;;
20928;SDS011;21895;47.072;15.132;2023-12-28T03:29:54;12.60;;;2.77;;
20928;SDS011;21895;47.072;15.132;2023-12-28T03:32:21;4.63;;;2.20;;
20928;SDS011;21895;47.072;15.132;2023-12-28T03:34:47;5.37;;;1.70;;
20928;SDS011;21895;47.072;15.132;2023-12-28T03:37:14;3.67;;;1.83;;
20928;SDS011;21895;47.072;15.132;2023-12-28T03:39:41;5.20;;;2.27;;
20928;SDS011;21895;47.072;15.132;2023-12-28T03:42:07;4.67;;;2.20;;
20928;SDS011;21895;47.072;15.132;2023-12-28T03:44:35;6.07;;;1.73;;
20928;SDS011;21895;47.072;15.132;2023-12-28T03:47:02;7.17;;;3.43;;
20928;SDS011;21895;47.072;15.132;2023-12-28T03:49:29;4.97;;;1.80;;
20928;SDS011;21895;47.072;15.132;2023-12-28T03:51:55;2.67;;;1.43;;
20928;SDS011;21895;47.072;15.132;2023-12-28T03:54:22;4.13;;;1.80;;
20928;SDS011;21895;47.072;15.132;2023-12-28T03:56:49;3.80;;;1.93;;
20928;SDS011;21895;47.072;15.132;2023-12-28T03:59:15;6.47;;;2.37;;
20928;SDS011;21895;47.072;15.132;2023-12-28T04:01:42;5.53;;;2.63;;
20928;SDS011;21895;47.072;15.132;2023-12-28T04:04:09;6.33;;;3.00;;
20928;SDS011;21895;47.072;15.132;2023-12-28T04:06:37;0.80;;;0.80;;
20928;SDS011;21895;47.072;15.132;2023-12-28T04:09:06;4.13;;;2.47;;
20928;SDS011;21895;47.072;15.132;2023-12-28T04:11:33;9.57;;;2.83;;
20928;SDS011;21895;47.072;15.132;2023-12-28T04:13:59;3.17;;;2.03;;
20928;SDS011;21895;47.072;15.132;2023-12-28T04:16:26;6.87;;;2.10;;
20928;SDS011;21895;47.072;15.132;2023-12-28T04:18:53;9.17;;;2.73;;
20928;SDS011;21895;47.072;15.132;2023-12-28T04:21:19;6.73;;;2.27;;
20928;SDS011;21895;47.072;15.132;2023-12-28T04:23:47;5.00;;;1.67;;
20928;SDS011;21895;47.072;15.132;2023-12-28T04:26:14;7.20;;;2.67;;
20928;SDS011;21895;47.072;15.132;2023-12-28T04:28:44;8.00;;;2.77;;
20928;SDS011;21895;47.072;15.132;2023-12-28T04:31:10;10.90;;;3.23;;
20928;SDS011;21895;47.072;15.132;2023-12-28T04:33:37;5.50;;;2.33;;
20928;SDS011;21895;47.072;15.132;2023-12-28T04:36:04;2.57;;;1.53;;
20928;SDS011;21895;47.072;15.132;2023-12-28T04:38:32;3.10;;;2.13;;
20928;SDS011;21895;47.072;15.132;2023-12-28T04:40:59;6.40;;;2.80;;
20928;SDS011;21895;47.072;15.132;2023-12-28T04:43:26;3.13;;;1.50;;
20928;SDS011;21895;47.072;15.132;2023-12-28T04:45:53;5.90;;;2.23;;
20928;SDS011;21895;47.072;15.132;2023-12-28T04:48:19;5.60;;;1.70;;
20928;SDS011;21895;47.072;15.132;2023-12-28T04:50:49;1.93;;;1.73;;
20928;SDS011;21895;47.072;15.132;2023-12-28T04:53:16;1.97;;;1.30;;
20928;SDS011;21895;47.072;15.132;2023-12-28T04:55:43;5.80;;;1.83;;
20928;SDS011;21895;47.072;15.132;2023-12-28T04:58:12;6.37;;;1.87;;
20928;SDS011;21895;47.072;15.132;2023-12-28T05:00:39;4.47;;;1.67;;
20928;SDS011;21895;47.072;15.132;2023-12-28T05:03:06;1.67;;;1.17;;
20928;SDS011;21895;47.072;15.132;2023-12-28T05:05:33;1.30;;;1.20;;
20928;SDS011;21895;47.072;15.132;2023-12-28T05:08:00;3.37;;;2.07;;
20928;SDS011;21895;47.072;15.132;2023-12-28T05:10:27;3.93;;;1.60;;
20928;SDS011;21895;47.072;15.132;2023-12-28T05:12:53;3.93;;;2.07;;
20928;SDS011;21895;47.072;15.132;2023-12-28T05:15:27;7.37;;;1.30;;
20928;SDS011;21895;47.072;15.132;2023-12-28T05:17:55;2.87;;;1.67;;
20928;SDS011;21895;47.072;15.132;2023-12-28T05:20:22;1.40;;;0.80;;
20928;SDS011;21895;47.072;15.132;2023-12-28T05:22:49;1.63;;;1.03;;
20928;SDS011;21895;47.072;15.132;2023-12-28T05:25:16;1.03;;;0.97;;
20928;SDS011;21895;47.072;15.132;2023-12-28T05:27:42;11.60;;;3.30;;
20928;SDS011;21895;47.072;15.132;2023-12-28T05:30:09;2.20;;;1.70;;
20928;SDS011;21895;47.072;15.132;2023-12-28T05:32:37;0.93;;;0.83;;
20928;SDS011;21895;47.072;15.132;2023-12-28T05:35:05;2.23;;;1.47;;
20928;SDS011;21895;47.072;15.132;2023-12-28T05:37:32;1.23;;;1.13;;
20928;SDS011;21895;47.072;15.132;2023-12-28T05:39:58;2.00;;;0.93;;
20928;SDS011;21895;47.072;15.132;2023-12-28T05:42:25;4.63;;;2.63;;
20928;SDS011;21895;47.072;15.132;2023-12-28T05:44:52;3.23;;;2.00;;
20928;SDS011;21895;47.072;15.132;2023-12-28T05:47:18;5.07;;;2.53;;
20928;SDS011;21895;47.072;15.132;2023-12-28T05:49:45;8.03;;;2.03;;
20928;SDS011;21895;47.072;15.132;2023-12-28T05:52:12;5.20;;;2.47;;
20928;SDS011;21895;47.072;15.132;2023-12-28T05:54:40;1.30;;;0.53;;
20928;SDS011;21895;47.072;15.132;2023-12-28T05:57:09;8.63;;;1.63;;
20928;SDS011;21895;47.072;15.132;2023-12-28T05:59:38;3.53;;;1.37;;
20928;SDS011;21895;47.072;15.132;2023-12-28T06:02:05;4.87;;;1.50;;
20928;SDS011;21895;47.072;15.132;2023-12-28T06:04:32;1.80;;;1.70;;
20928;SDS011;21895;47.072;15.132;2023-12-28T06:06:59;4.80;;;1.40;;
20928;SDS011;21895;47.072;15.132;2023-12-28T06:09:26;2.53;;;1.33;;
20928;SDS011;21895;47.072;15.132;2023-12-28T06:11:53;1.10;;;0.80;;
20928;SDS011;21895;47.072;15.132;2023-12-28T06:14:20;4.23;;;1.07;;
20928;SDS011;21895;47.072;15.132;2023-12-28T06:16:46;2.17;;;1.50;;
20928;SDS011;21895;47.072;15.132;2023-12-28T06:19:13;3.77;;;1.23;;
20928;SDS011;21895;47.072;15.132;2023-12-28T06:21:39;4.30;;;1.73;;
20928;SDS011;21895;47.072;15.132;2023-12-28T06:24:08;1.03;;;0.90;;
20928;SDS011;21895;47.072;15.132;2023-12-28T06:26:38;2.80;;;1.27;;
20928;SDS011;21895;47.072;15.132;2023-12-28T06:29:08;2.47;;;0.97;;
20928;SDS011;21895;47.072;15.132;2023-12-28T06:31:35;0.90;;;0.83;;
20928;SDS011;21895;47.072;15.132;2023-12-28T06:34:03;1.03;;;0.97;;
20928;SDS011;21895;47.072;15.132;2023-12-28T06:36:34;1.17;;;0.93;;
20928;SDS011;21895;47.072;15.132;2023-12-28T06:39:01;3.27;;;0.83;;
20928;SDS011;21895;47.072;15.132;2023-12-28T06:41:29;1.73;;;1.00;;
20928;SDS011;21895;47.072;15.132;2023-12-28T06:43:56;3.40;;;1.73;;
20928;SDS011;21895;47.072;15.132;2023-12-28T06:46:22;1.07;;;0.70;;
20928;SDS011;21895;47.072;15.132;2023-12-28T06:48:49;1.87;;;0.50;;
20928;SDS011;21895;47.072;15.132;2023-12-28T06:51:17;1.23;;;1.13;;
20928;SDS011;21895;47.072;15.132;2023-12-28T06:53:47;4.83;;;1.43;;
20928;SDS011;21895;47.072;15.132;2023-12-28T06:56:14;4.07;;;0.87;;
20928;SDS011;21895;47.072;15.132;2023-12-28T06:58:41;1.47;;;0.97;;
20928;SDS011;21895;47.072;15.132;2023-12-28T07:01:08;3.47;;;1.17;;
20928;SDS011;21895;47.072;15.132;2023-12-28T07:03:35;2.50;;;1.37;;
20928;SDS011;21895;47.072;15.132;2023-12-28T07:06:02;2.53;;;1.43;;
20928;SDS011;21895;47.072;15.132;2023-12-28T07:08:29;15.13;;;0.90;;
20928;SDS011;21895;47.072;15.132;2023-12-28T07:10:59;0.53;;;0.53;;
20928;SDS011;21895;47.072;15.132;2023-12-28T07:13:26;0.63;;;0.63;;
20928;SDS011;21895;47.072;15.132;2023-12-28T07:15:53;5.07;;;0.97;;
20928;SDS011;21895;47.072;15.132;2023-12-28T07:18:24;0.80;;;0.67;;
20928;SDS011;21895;47.072;15.132;2023-12-28T07:20:51;0.73;;;0.57;;
20928;SDS011;21895;47.072;15.132;2023-12-28T07:23:18;8.63;;;1.13;;
20928;SDS011;21895;47.072;15.132;2023-12-28T07:25:44;1.67;;;1.17;;
20928;SDS011;21895;47.072;15.132;2023-12-28T07:28:11;0.90;;;0.83;;
20928;SDS011;21895;47.072;15.132;2023-12-28T07:30:38;1.87;;;1.03;;
20928;SDS011;21895;47.072;15.132;2023-12-28T07:33:05;4.33;;;1.67;;
20928;SDS011;21895;47.072;15.132;2023-12-28T07:35:32;4.77;;;0.83;;
20928;SDS011;21895;47.072;15.132;2023-12-28T07:37:58;2.63;;;1.13;;
20928;SDS011;21895;47.072;15.132;2023-12-28T07:40:25;3.23;;;1.27;;
20928;SDS011;21895;47.072;15.132;2023-12-28T07:42:52;1.30;;;1.03;;
20928;SDS011;21895;47.072;15.132;2023-12-28T07:45:19;0.70;;;0.57;;
20928;SDS011;21895;47.072;15.132;2023-12-28T07:47:49;2.93;;;0.80;;
20928;SDS011;21895;47.072;15.132;2023-12-28T07:50:17;1.70;;;1.10;;
20928;SDS011;21895;47.072;15.132;2023-12-28T07:52:49;0.70;;;0.70;;
20928;SDS011;21895;47.072;15.132;2023-12-28T07:55:16;3.27;;;1.30;;
20928;SDS011;21895;47.072;15.132;2023-12-28T07:57:43;5.47;;;2.27;;
20928;SDS011;21895;47.072;15.132;2023-12-28T08:00:11;6.30;;;1.63;;
20928;SDS011;21895;47.072;15.132;2023-12-28T08:02:38;7.77;;;1.70;;
20928;SDS011;21895;47.072;15.132;2023-12-28T08:05:04;1.97;;;1.27;;
20928;SDS011;21895;47.072;15.132;2023-12-28T08:07:32;0.97;;;0.83;;
20928;SDS011;21895;47.072;15.132;2023-12-28T08:09:58;1.60;;;0.93;;
20928;SDS011;21895;47.072;15.132;2023-12-28T08:12:26;10.03;;;2.47;;
20928;SDS011;21895;47.072;15.132;2023-12-28T08:14:53;9.77;;;4.50;;
20928;SDS011;21895;47.072;15.132;2023-12-28T08:17:20;4.83;;;2.67;;
20928;SDS011;21895;47.072;15.132;2023-12-28T08:19:47;10.50;;;4.60;;
20928;SDS011;21895;47.072;15.132;2023-12-28T08:22:14;18.47;;;3.30;;
20928;SDS011;21895;47.072;15.132;2023-12-28T08:24:41;3.87;;;1.00;;
20928;SDS011;21895;47.072;15.132;2023-12-28T08:27:08;2.70;;;1.83;;
20928;SDS011;21895;47.072;15.132;2023-12-28T08:29:34;3.37;;;1.37;;
20928;SDS011;21895;47.072;15.132;2023-12-28T08:32:01;2.87;;;1.30;;
20928;SDS011;21895;47.072;15.132;2023-12-28T08:34:28;3.27;;;1.70;;
20928;SDS011;21895;47.072;15.132;2023-12-28T08:36:55;7.67;;;1.60;;
20928;SDS011;21895;47.072;15.132;2023-12-28T08:39:22;5.80;;;1.70;;
20928;SDS011;21895;47.072;15.132;2023-12-28T08:41:49;3.43;;;1.87;;
20928;SDS011;21895;47.072;15.132;2023-12-28T08:44:15;5.70;;;3.33;;
20928;SDS011;21895;47.072;15.132;2023-12-28T08:46:42;5.17;;;2.20;;
20928;SDS011;21895;47.072;15.132;2023-12-28T08:49:08;5.30;;;2.27;;
20928;SDS011;21895;47.072;15.132;2023-12-28T08:51:35;7.93;;;3.13;;
20928;SDS011;21895;47.072;15.132;2023-12-28T08:54:02;22.00;;;4.07;;
20928;SDS011;21895;47.072;15.132;2023-12-28T08:56:29;8.97;;;3.90;;
20928;SDS011;21895;47.072;15.132;2023-12-28T08:58:55;7.23;;;3.10;;
20928;SDS011;21895;47.072;15.132;2023-12-28T09:01:23;3.57;;;2.13;;
20928;SDS011;21895;47.072;15.132;2023-12-28T09:03:53;7.87;;;2.53;;
20928;SDS011;21895;47.072;15.132;2023-12-28T09:06:20;11.23;;;2.80;;
20928;SDS011;21895;47.072;15.132;2023-12-28T09:08:50;7.37;;;2.83;;
20928;SDS011;21895;47.072;15.132;2023-12-28T09:11:19;5.70;;;2.30;;
20928;SDS011;21895;47.072;15.132;2023-12-28T09:13:47;9.10;;;2.83;;
20928;SDS011;21895;47.072;15.132;2023-12-28T09:16:14;4.67;;;2.17;;
20928;SDS011;21895;47.072;15.132;2023-12-28T09:18:42;5.37;;;2.93;;
20928;SDS011;21895;47.072;15.132;2023-12-28T09:21:09;8.93;;;3.80;;
20928;SDS011;21895;47.072;15.132;2023-12-28T09:23:36;7.90;;;3.33;;
20928;SDS011;21895;47.072;15.132;2023-12-28T09:26:04;7.13;;;2.60;;
20928;SDS011;21895;47.072;15.132;2023-12-28T09:28:32;8.70;;;3.00;;
20928;SDS011;21895;47.072;15.132;2023-12-28T09:31:00;11.17;;;3.40;;
20928;SDS011;21895;47.072;15.132;2023-12-28T09:33:28;5.50;;;2.73;;
20928;SDS011;21895;47.072;15.132;2023-12-28T09:35:56;4.53;;;2.00;;
20928;SDS011;21895;47.072;15.132;2023-12-28T09:38:22;9.07;;;3.63;;
20928;SDS011;21895;47.072;15.132;2023-12-28T09:40:52;7.40;;;3.37;;
20928;SDS011;21895;47.072;15.132;2023-12-28T09:43:23;7.87;;;2.73;;
20928;SDS011;21895;47.072;15.132;2023-12-28T09:45:52;8.03;;;3.37;;
20928;SDS011;21895;47.072;15.132;2023-12-28T09:48:22;20.63;;;4.63;;
20928;SDS011;21895;47.072;15.132;2023-12-28T09:50:50;8.00;;;4.30;;
20928;SDS011;21895;47.072;15.132;2023-12-28T09:53:22;11.77;;;4.60;;
20928;SDS011;21895;47.072;15.132;2023-12-28T09:55:52;9.17;;;4.50;;
20928;SDS011;21895;47.072;15.132;2023-12-28T09:58:20;16.07;;;5.33;;
20928;SDS011;21895;47.072;15.132;2023-12-28T10:00:49;20.80;;;6.33;;
20928;SDS011;21895;47.072;15.132;2023-12-28T10:03:16;23.03;;;8.10;;
20928;SDS011;21895;47.072;15.132;2023-12-28T10:05:44;13.30;;;6.60;;
20928;SDS011;21895;47.072;15.132;2023-12-28T10:08:12;11.70;;;5.93;;
20928;SDS011;21895;47.072;15.132;2023-12-28T10:10:40;21.97;;;7.43;;
20928;SDS011;21895;47.072;15.132;2023-12-28T10:13:08;25.10;;;8.53;;
20928;SDS011;21895;47.072;15.132;2023-12-28T10:15:37;33.43;;;11.53;;
20928;SDS011;21895;47.072;15.132;2023-12-28T10:18:06;20.90;;;8.73;;
20928;SDS011;21895;47.072;15.132;2023-12-28T10:20:33;37.40;;;9.83;;
20928;SDS011;21895;47.072;15.132;2023-12-28T10:22:59;30.40;;;10.80;;
20928;SDS011;21895;47.072;15.132;2023-12-28T10:25:27;30.30;;;10.87;;
20928;SDS011;21895;47.072;15.132;2023-12-28T10:27:57;30.37;;;10.90;;
20928;SDS011;21895;47.072;15.132;2023-12-28T10:30:30;32.17;;;11.50;;
20928;SDS011;21895;47.072;15.132;2023-12-28T10:32:58;32.20;;;10.03;;
20928;SDS011;21895;47.072;15.132;2023-12-28T10:35:25;25.87;;;9.73;;
20928;SDS011;21895;47.072;15.132;2023-12-28T10:37:52;31.63;;;11.07;;
20928;SDS011;21895;47.072;15.132;2023-12-28T10:40:25;24.63;;;9.37;;
20928;SDS011;21895;47.072;15.132;2023-12-28T10:45:32;23.53;;;8.63;;
20928;SDS011;21895;47.072;15.132;2023-12-28T10:48:07;20.93;;;8.03;;
20928;SDS011;21895;47.072;15.132;2023-12-28T10:50:49;24.00;;;8.37;;
20928;SDS011;21895;47.072;15.132;2023-12-28T11:02:53;20.80;;;6.73;;
20928;SDS011;21895;47.072;15.132;2023-12-28T11:05:29;20.63;;;7.23;;
20928;SDS011;21895;47.072;15.132;2023-12-28T11:07:58;16.47;;;5.63;;
20928;SDS011;21895;47.072;15.132;2023-12-28T11:10:28;10.03;;;3.70;;
20928;SDS011;21895;47.072;15.132;2023-12-28T11:12:58;10.93;;;2.90;;
20928;SDS011;21895;47.072;15.132;2023-12-28T11:15:27;10.87;;;3.30;;
20928;SDS011;21895;47.072;15.132;2023-12-28T11:17:56;8.47;;;3.40;;
20928;SDS011;21895;47.072;15.132;2023-12-28T11:20:23;8.97;;;3.90;;
20928;SDS011;21895;47.072;15.132;2023-12-28T11:22:51;11.07;;;3.97;;
20928;SDS011;21895;47.072;15.132;2023-12-28T11:25:18;8.93;;;4.20;;
20928;SDS011;21895;47.072;15.132;2023-12-28T11:27:45;10.57;;;4.60;;
20928;SDS011;21895;47.072;15.132;2023-12-28T11:30:12;13.63;;;5.57;;
20928;SDS011;21895;47.072;15.132;2023-12-28T11:32:43;12.03;;;5.50;;
20928;SDS011;21895;47.072;15.132;2023-12-28T11:35:13;15.10;;;5.47;;
20928;SDS011;21895;47.072;15.132;2023-12-28T11:37:42;17.47;;;5.67;;
20928;SDS011;21895;47.072;15.132;2023-12-28T11:40:17;15.10;;;4.77;;
20928;SDS011;21895;47.072;15.132;2023-12-28T11:42:48;23.47;;;4.70;;
20928;SDS011;21895;47.072;15.132;2023-12-28T11:45:20;15.10;;;4.90;;
20928;SDS011;21895;47.072;15.132;2023-12-28T11:47:59;13.33;;;4.50;;
20928;SDS011;21895;47.072;15.132;2023-12-28T11:50:28;10.73;;;4.33;;
20928;SDS011;21895;47.072;15.132;2023-12-28T11:52:54;18.43;;;4.53;;
20928;SDS011;21895;47.072;15.132;2023-12-28T11:55:22;14.80;;;4.43;;
20928;SDS011;21895;47.072;15.132;2023-12-28T11:57:49;10.90;;;4.30;;
20928;SDS011;21895;47.072;15.132;2023-12-28T12:00:16;11.57;;;4.93;;
20928;SDS011;21895;47.072;15.132;2023-12-28T12:02:43;9.53;;;4.03;;
20928;SDS011;21895;47.072;15.132;2023-12-28T12:05:14;12.23;;;4.60;;
20928;SDS011;21895;47.072;15.132;2023-12-28T12:07:40;6.17;;;3.33;;
20928;SDS011;21895;47.072;15.132;2023-12-28T12:10:07;6.80;;;3.00;;
20928;SDS011;21895;47.072;15.132;2023-12-28T12:12:40;8.37;;;2.83;;
20928;SDS011;21895;47.072;15.132;2023-12-28T12:15:08;20.13;;;3.40;;
20928;SDS011;21895;47.072;15.132;2023-12-28T12:17:35;8.20;;;2.90;;
20928;SDS011;21895;47.072;15.132;2023-12-28T12:20:02;21.57;;;2.70;;
20928;SDS011;21895;47.072;15.132;2023-12-28T12:22:29;10.77;;;2.30;;
20928;SDS011;21895;47.072;15.132;2023-12-28T12:24:58;12.70;;;2.97;;
20928;SDS011;21895;47.072;15.132;2023-12-28T12:27:31;6.90;;;2.47;;
20928;SDS011;21895;47.072;15.132;2023-12-28T12:29:58;9.53;;;2.60;;
20928;SDS011;21895;47.072;15.132;2023-12-28T12:32:25;6.63;;;2.67;;
20928;SDS011;21895;47.072;15.132;2023-12-28T12:34:53;6.83;;;2.50;;
20928;SDS011;21895;47.072;15.132;2023-12-28T12:37:21;8.03;;;2.67;;
20928;SDS011;21895;47.072;15.132;2023-12-28T12:39:49;5.50;;;2.53;;
20928;SDS011;21895;47.072;15.132;2023-12-28T12:42:16;5.73;;;2.27;;
20928;SDS011;21895;47.072;15.132;2023-12-28T12:44:42;6.30;;;2.60;;
20928;SDS011;21895;47.072;15.132;2023-12-28T12:47:10;11.00;;;2.87;;
20928;SDS011;21895;47.072;15.132;2023-12-28T12:49:38;9.27;;;3.20;;
20928;SDS011;21895;47.072;15.132;2023-12-28T12:52:07;6.57;;;2.50;;
20928;SDS011;21895;47.072;15.132;2023-12-28T12:54:34;12.77;;;2.80;;
20928;SDS011;21895;47.072;15.132;2023-12-28T12:57:00;11.30;;;3.10;;
20928;SDS011;21895;47.072;15.132;2023-12-28T12:59:28;6.40;;;2.50;;
20928;SDS011;21895;47.072;15.132;2023-12-28T13:01:56;6.03;;;2.63;;
20928;SDS011;21895;47.072;15.132;2023-12-28T13:04:22;9.30;;;2.90;;
20928;SDS011;21895;47.072;15.132;2023-12-28T13:06:49;8.37;;;3.07;;
20928;SDS011;21895;47.072;15.132;2023-12-28T13:09:16;7.27;;;2.80;;
20928;SDS011;21895;47.072;15.132;2023-12-28T13:11:43;8.47;;;3.30;;
20928;SDS011;21895;47.072;15.132;2023-12-28T13:14:12;6.47;;;2.83;;
20928;SDS011;21895;47.072;15.132;2023-12-28T13:16:39;5.80;;;2.67;;
20928;SDS011;21895;47.072;15.132;2023-12-28T13:19:05;13.13;;;2.57;;
20928;SDS011;21895;47.072;15.132;2023-12-28T13:21:32;6.60;;;2.50;;
20928;SDS011;21895;47.072;15.132;2023-12-28T13:23:58;9.47;;;2.50;;
20928;SDS011;21895;47.072;15.132;2023-12-28T13:26:27;7.03;;;2.63;;
20928;SDS011;21895;47.072;15.132;2023-12-28T13:28:54;7.40;;;2.83;;
20928;SDS011;21895;47.072;15.132;2023-12-28T13:31:22;11.60;;;2.67;;
20928;SDS011;21895;47.072;15.132;2023-12-28T13:33:48;7.07;;;2.73;;
20928;SDS011;21895;47.072;15.132;2023-12-28T13:36:15;6.60;;;3.00;;
20928;SDS011;21895;47.072;15.132;2023-12-28T13:38:42;8.60;;;2.80;;
20928;SDS011;21895;47.072;15.132;2023-12-28T13:41:09;12.93;;;3.77;;
20928;SDS011;21895;47.072;15.132;2023-12-28T13:43:36;20.60;;;3.77;;
20928;SDS011;21895;47.072;15.132;2023-12-28T13:46:02;9.17;;;3.07;;
20928;SDS011;21895;47.072;15.132;2023-12-28T13:48:30;10.80;;;3.23;;
20928;SDS011;21895;47.072;15.132;2023-12-28T13:50:57;13.23;;;3.30;;
20928;SDS011;21895;47.072;15.132;2023-12-28T13:53:23;12.53;;;3.37;;
20928;SDS011;21895;47.072;15.132;2023-12-28T13:55:50;9.87;;;3.63;;
20928;SDS011;21895;47.072;15.132;2023-12-28T13:58:17;5.60;;;2.90;;
20928;SDS011;21895;47.072;15.132;2023-12-28T14:00:43;4.97;;;2.50;;
20928;SDS011;21895;47.072;15.132;2023-12-28T14:03:10;11.60;;;3.87;;
20928;SDS011;21895;47.072;15.132;2023-12-28T14:05:37;11.60;;;3.50;;
20928;SDS011;21895;47.072;15.132;2023-12-28T14:08:04;9.50;;;3.50;;
20928;SDS011;21895;47.072;15.132;2023-12-28T14:10:31;18.43;;;4.60;;
20928;SDS011;21895;47.072;15.132;2023-12-28T14:12:57;11.57;;;4.80;;
20928;SDS011;21895;47.072;15.132;2023-12-28T14:15:24;20.37;;;5.10;;
20928;SDS011;21895;47.072;15.132;2023-12-28T14:17:51;18.00;;;4.53;;
20928;SDS011;21895;47.072;15.132;2023-12-28T14:20:18;13.87;;;3.87;;
20928;SDS011;21895;47.072;15.132;2023-12-28T14:22:45;12.87;;;4.33;;
20928;SDS011;21895;47.072;15.132;2023-12-28T14:25:12;17.30;;;3.73;;
20928;SDS011;21895;47.072;15.132;2023-12-28T14:27:40;7.83;;;3.53;;
20928;SDS011;21895;47.072;15.132;2023-12-28T14:30:08;9.93;;;3.83;;
20928;SDS011;21895;47.072;15.132;2023-12-28T14:32:36;10.03;;;3.70;;
20928;SDS011;21895;47.072;15.132;2023-12-28T14:35:04;11.20;;;3.70;;
20928;SDS011;21895;47.072;15.132;2023-12-28T14:37:32;8.80;;;3.73;;
20928;SDS011;21895;47.072;15.132;2023-12-28T14:39:59;11.40;;;3.27;;
20928;SDS011;21895;47.072;15.132;2023-12-28T14:42:30;8.63;;;3.60;;
20928;SDS011;21895;47.072;15.132;2023-12-28T14:44:56;10.93;;;3.83;;
20928;SDS011;21895;47.072;15.132;2023-12-28T14:47:23;10.87;;;2.97;;